ADDS METAR Data INFO
IDs: Format: Raw Decoded Include TAF

Data at: 0934 UTC 25 Jun 2018

KVDI 250915Z AUTO 00000KT 10SM CLR 26/22 A3006 RMK AO2
KVDI 250855Z AUTO 19004KT 10SM CLR 26/22 A3005 RMK AO2
KVDI 250835Z AUTO 19005KT 10SM CLR 26/22 A3004 RMK AO2
KVDI 250815Z AUTO 19006KT 10SM CLR 26/22 A3004 RMK AO2
KVDI 250755Z AUTO 17003KT 10SM CLR 26/22 A3004 RMK AO2
KVDI 250735Z AUTO 19003KT 10SM CLR 26/22 A3004 RMK AO2
KVDI 250715Z AUTO 21004KT 10SM CLR 26/22 A3004 RMK AO2
KVDI 250655Z AUTO 20005KT 10SM SCT065 SCT085 26/22 A3004 RMK AO2
KVDI 250635Z AUTO 18004KT 10SM SCT065 BKN085 27/22 A3004 RMK AO2
KVDI 250615Z AUTO 19004KT 10SM BKN065 BKN085 27/22 A3005 RMK AO2 LTG DSNT E
KVDI 250555Z AUTO 16003KT 10SM BKN065 BKN075 27/22 A3006 RMK AO2
KVDI 250535Z AUTO 15004KT 10SM BKN075 BKN080 27/22 A3006 RMK AO2 LTG DSNT E
KVDI 250515Z AUTO 00000KT 10SM CLR 27/22 A3006 RMK AO2
KVDI 250455Z AUTO 00000KT 10SM CLR 27/22 A3006 RMK AO2
KVDI 250435Z AUTO 00000KT 10SM CLR 27/22 A3006 RMK AO2
KVDI 250415Z AUTO 00000KT 10SM CLR 27/22 A3006 RMK AO2 LTG DSNT NE
KVDI 250355Z AUTO 00000KT 10SM CLR 27/22 A3005 RMK AO2
KVDI 250335Z AUTO 00000KT 10SM CLR 27/22 A3005 RMK AO2 LTG DSNT NE
KVDI 250315Z AUTO 00000KT 10SM CLR 28/22 A3005 RMK AO2 LTG DSNT NE
KVDI 250255Z AUTO 00000KT 10SM CLR 28/21 A3004 RMK AO2
KVDI 250235Z AUTO 00000KT 10SM CLR 29/22 A3005 RMK AO2
KVDI 250215Z AUTO 00000KT 10SM CLR 29/22 A3005 RMK AO2
KVDI 250155Z AUTO 00000KT 10SM CLR 30/22 A3005 RMK AO2
KVDI 250135Z AUTO 00000KT 10SM CLR 30/22 A3004 RMK AO2 LTG DSNT N
KVDI 250115Z AUTO 00000KT 10SM CLR 31/22 A3003 RMK AO2
KVDI 250055Z AUTO 00000KT 10SM CLR 31/22 A3002 RMK AO2
KVDI 250035Z AUTO 00000KT 10SM CLR 31/22 A3001 RMK AO2
KVDI 250015Z AUTO 00000KT 10SM SCT047 32/21 A3000 RMK AO2
KVDI 242355Z AUTO 00000KT 10SM SCT047 33/21 A2999 RMK AO2
KVDI 242335Z AUTO 26003KT 10SM SCT045 33/21 A2999 RMK AO2
KVDI 242315Z AUTO 24004KT 10SM CLR 33/20 A2999 RMK AO2
KVDI 242255Z AUTO 26005KT 10SM CLR 33/20 A2998 RMK AO2
KVDI 242235Z AUTO 26004KT 10SM CLR 34/20 A2997 RMK AO2
KVDI 242215Z AUTO 26004KT 10SM SCT047 33/20 A2998 RMK AO2
KVDI 242155Z AUTO 00000KT 10SM CLR 34/20 A2998 RMK AO2
KVDI 242135Z AUTO 28006KT 10SM CLR 35/20 A2999 RMK AO2
KVDI 242115Z AUTO 30005KT 10SM CLR 35/20 A2999 RMK AO2
KVDI 242055Z AUTO 26005KT 10SM CLR 35/20 A2999 RMK AO2
KVDI 242035Z AUTO 24005KT 10SM CLR 34/20 A2999 RMK AO2
KVDI 242015Z AUTO 23003KT 10SM CLR 34/20 A3000 RMK AO2
KVDI 241955Z AUTO 28004KT 10SM CLR 34/21 A3000 RMK AO2
KVDI 241935Z AUTO 25008KT 10SM SCT041 34/21 A3001 RMK AO2
KVDI 241915Z AUTO 28005KT 10SM SCT041 34/21 A3002 RMK AO2
KVDI 241855Z AUTO 28005KT 10SM SCT039 34/21 A3002 RMK AO2
KVDI 241835Z AUTO 28008KT 10SM SCT039 SCT050 SCT070 33/21 A3002 RMK AO2
KVDI 241815Z AUTO 30007KT 10SM BKN039 BKN046 BKN050 33/22 A3004 RMK AO2
KVDI 241755Z AUTO 25004KT 10SM SCT039 SCT060 34/22 A3004 RMK AO2
KVDI 241735Z AUTO 28005KT 10SM SCT039 SCT060 33/22 A3004 RMK AO2
KVDI 241715Z AUTO 29006KT 10SM SCT037 SCT065 33/22 A3004 RMK AO2
KVDI 241655Z AUTO 25005KT 10SM SCT037 SCT065 33/22 A3005 RMK AO2
KVDI 241635Z AUTO 27005G14KT 10SM SCT033 33/21 A3005 RMK AO2
KVDI 241615Z AUTO 29007KT 10SM SCT033 SCT039 SCT046 32/22 A3006 RMK AO2
KVDI 241555Z AUTO 29003KT 10SM SCT031 SCT043 32/22 A3006 RMK AO2
KVDI 241535Z AUTO 26006KT 10SM SCT029 32/22 A3006 RMK AO2
KVDI 241515Z AUTO 28004KT 10SM CLR 32/22 A3005 RMK AO2
KVDI 241455Z AUTO 25003KT 10SM CLR 31/23 A3006 RMK AO2
KVDI 241435Z AUTO 30003KT 10SM CLR 31/22 A3005 RMK AO2
KVDI 241415Z AUTO 25003KT 10SM CLR 30/23 A3005 RMK AO2
KVDI 241355Z AUTO 28003KT 10SM CLR 30/23 A3005 RMK AO2
KVDI 241335Z AUTO 26004KT 10SM CLR 29/22 A3005 RMK AO2
KVDI 241315Z AUTO 26003KT 10SM CLR 28/22 A3004 RMK AO2
KVDI 241255Z AUTO 27003KT 10SM CLR 28/22 A3004 RMK AO2
KVDI 241235Z AUTO 27004KT 10SM CLR 27/22 A3004 RMK AO2
KVDI 241215Z AUTO 26005KT 10SM CLR 27/22 A3003 RMK AO2
KVDI 241155Z AUTO 24003KT 10SM SCT005 26/22 A3003 RMK AO2
KVDI 241135Z AUTO 24003KT 10SM SCT003 SCT007 25/22 A3003 RMK AO2
KVDI 241115Z AUTO 00000KT 10SM CLR 25/22 A3002 RMK AO2
KVDI 241055Z AUTO 00000KT 7SM CLR 24/21 A3002 RMK AO2
KVDI 241035Z AUTO 00000KT 10SM CLR 24/21 A3001 RMK AO2
KVDI 241015Z AUTO 00000KT 10SM CLR 24/21 A3000 RMK AO2
KVDI 240955Z AUTO 00000KT 10SM CLR 24/21 A2999 RMK AO2
KVDI 240935Z AUTO 00000KT 10SM CLR 25/21 A2999 RMK AO2
KVDI 240915Z AUTO 00000KT 10SM CLR 25/21 A2999 RMK AO2
KVDI 240855Z AUTO 00000KT 10SM CLR 25/21 A2998 RMK AO2
KVDI 240835Z AUTO 00000KT 10SM CLR 25/21 A2998 RMK AO2
KVDI 240815Z AUTO 00000KT 10SM CLR 25/21 A2997 RMK AO2
KVDI 240755Z AUTO 00000KT 10SM CLR 25/21 A2997 RMK AO2
KVDI 240735Z AUTO 00000KT 10SM CLR 25/21 A2997 RMK AO2
KVDI 240715Z AUTO 00000KT 10SM CLR 25/21 A2997 RMK AO2
KVDI 240655Z AUTO 00000KT 10SM CLR 25/21 A2997 RMK AO2
KVDI 240635Z AUTO 00000KT 10SM CLR 25/22 A2997 RMK AO2
KVDI 240615Z AUTO 00000KT 10SM CLR 25/21 A2997 RMK AO2
KVDI 240555Z AUTO 19003KT 10SM CLR 25/22 A2997 RMK AO2
KVDI 240535Z AUTO 19003KT 10SM CLR 25/22 A2997 RMK AO2
KVDI 240515Z AUTO 00000KT 10SM CLR 25/21 A2997 RMK AO2
KVDI 240455Z AUTO 00000KT 10SM CLR 26/21 A2997 RMK AO2
KVDI 240435Z AUTO 17004KT 10SM CLR 26/21 A2998 RMK AO2
KVDI 240415Z AUTO 18004KT 10SM CLR 26/22 A2998 RMK AO2
KVDI 240355Z AUTO 19003KT 10SM CLR 26/22 A2998 RMK AO2
KVDI 240335Z AUTO 18003KT 10SM CLR 26/21 A2997 RMK AO2
KVDI 240315Z AUTO 17003KT 10SM CLR 26/21 A2997 RMK AO2
KVDI 240255Z AUTO 18003KT 10SM CLR 26/21 A2997 RMK AO2
KVDI 240235Z AUTO 17005KT 10SM CLR 26/21 A2997 RMK AO2
KVDI 240215Z AUTO 14003KT 10SM CLR 26/21 A2997 RMK AO2
KVDI 240155Z AUTO 00000KT 10SM CLR 26/21 A2997 RMK AO2
KVDI 240135Z AUTO 15004KT 10SM CLR 27/21 A2996 RMK AO2
KVDI 240115Z AUTO 00000KT 10SM CLR 26/22 A2996 RMK AO2
KVDI 240055Z AUTO 00000KT 10SM CLR 27/21 A2995 RMK AO2 LTG DSNT SE
KVDI 240035Z AUTO 00000KT 10SM CLR 27/21 A2995 RMK AO2 LTG DSNT SE
KVDI 240015Z AUTO 00000KT 10SM CLR 28/21 A2995 RMK AO2
KVDI 232355Z AUTO 00000KT 10SM SCT065 28/21 A2995 RMK AO2
KVDI 232335Z AUTO 00000KT 10SM SCT075 SCT090 28/21 A2995 RMK AO2
KVDI 232315Z AUTO 03006KT 10SM SCT049 SCT060 SCT095 29/21 A2995 RMK AO2 LTG DSNT SE
KVDI 232255Z AUTO 00000KT 10SM CLR 30/21 A2994 RMK AO2
KVDI 232235Z AUTO 00000KT 10SM CLR 30/21 A2994 RMK AO2
KVDI 232215Z AUTO 05003KT 10SM CLR 30/21 A2994 RMK AO2
KVDI 232155Z AUTO 35006KT 10SM SCT037 SCT065 SCT090 29/21 A2994 RMK AO2 LTG DSNT N
KVDI 232135Z AUTO 00000KT 10SM SCT045 SCT050 SCT060 28/21 A2994 RMK AO2 LTG DSNT E AND SE